Donald, Georgia
Current Conditions -  °F | °C
As of 4:58 PM on Tuesday 25 Nov 2014 (Local Time) from KLHW Reporting Station
Overcast Overcast  
Wind Chill: 57°   Ceiling: 1100
Heat Index: 57°   Visibility: 10mi
Dew Point: 55°   Wind: 6mph
Humidity: 93%   Direction: 340°NNW
Pressure: 29.99"   Gusts: NA
Location:  31.755°N, 81.7451°W
Report Text: KLHW 252158Z AUTO 34005KT 10SM BKN011 BKN060 OVC110 14/13 A2999 RMK AO2 RAB2106E2144DZE2104B2121E2125B2144E2148 SLP158 P0001 T01390128
Loading
Personal Weather Stations






























Interactive Weather Map New forecast layout! Learn more

10-Day Weather Forecast

Advertisements
Track Severe Weather on mobile